createdAt,value
2019-05-25T00:00:47.825Z,12.82
2019-05-25T00:01:47.820Z,12.89
2019-05-25T00:02:47.817Z,12.80
2019-05-25T00:03:47.785Z,12.72
2019-05-25T00:04:47.769Z,12.75
2019-05-25T00:05:47.750Z,12.71
2019-05-25T00:06:47.734Z,12.67
2019-05-25T00:07:47.720Z,12.67
2019-05-25T00:08:47.699Z,12.61
2019-05-25T00:09:48.476Z,12.55
2019-05-25T00:10:47.667Z,12.50
2019-05-25T00:11:47.648Z,12.55
2019-05-25T00:12:47.630Z,12.62
2019-05-25T00:13:47.603Z,12.47
2019-05-25T00:14:47.575Z,12.53
2019-05-25T00:15:47.555Z,12.47
2019-05-25T00:16:47.548Z,12.50
2019-05-25T00:17:47.527Z,12.42
2019-05-25T00:18:47.508Z,12.37
2019-05-25T00:19:47.491Z,12.46
2019-05-25T00:20:47.470Z,12.43
2019-05-25T00:21:47.452Z,12.40
2019-05-25T00:22:47.437Z,12.43
2019-05-25T00:23:47.417Z,12.29
2019-05-25T00:24:47.400Z,12.32
2019-05-25T00:25:47.383Z,12.40
2019-05-25T00:26:47.369Z,12.35
2019-05-25T00:27:47.352Z,12.39
2019-05-25T00:28:47.335Z,12.29
2019-05-25T00:29:47.317Z,12.29
2019-05-25T00:30:47.296Z,12.29
2019-05-25T00:31:47.280Z,12.27
2019-05-25T00:32:47.261Z,12.25
2019-05-25T00:33:47.246Z,12.28
2019-05-25T00:34:47.234Z,12.22
2019-05-25T00:35:47.222Z,12.27
2019-05-25T00:36:47.197Z,12.25
2019-05-25T00:37:47.175Z,12.22
2019-05-25T00:38:47.158Z,12.09
2019-05-25T00:39:47.138Z,12.10
2019-05-25T00:40:47.122Z,12.13
2019-05-25T00:41:47.106Z,12.06
2019-05-25T00:42:47.089Z,12.01
2019-05-25T00:43:47.069Z,11.96
2019-05-25T00:44:47.057Z,12.04
2019-05-25T00:45:47.034Z,11.96
2019-05-25T00:46:47.019Z,12.00
2019-05-25T00:47:46.998Z,12.01
2019-05-25T00:48:46.981Z,11.95
2019-05-25T00:49:46.966Z,11.88
2019-05-25T00:50:46.951Z,11.91
2019-05-25T00:51:46.930Z,11.87
2019-05-25T00:52:46.912Z,11.77
2019-05-25T00:53:46.892Z,11.73
2019-05-25T00:54:46.885Z,11.77
2019-05-25T00:55:46.857Z,11.76
2019-05-25T00:56:46.840Z,11.85
2019-05-25T00:57:46.826Z,11.76
2019-05-25T00:58:46.805Z,11.75
2019-05-25T00:59:46.786Z,11.77
2019-05-25T01:00:46.778Z,11.76
2019-05-25T01:01:46.753Z,11.73
2019-05-25T01:02:46.751Z,11.67
2019-05-25T01:03:46.716Z,11.63
2019-05-25T01:04:46.697Z,11.58
2019-05-25T01:05:46.681Z,11.58
2019-05-25T01:06:46.662Z,11.48
2019-05-25T01:07:46.646Z,11.48
2019-05-25T01:08:46.626Z,11.48
2019-05-25T01:09:46.609Z,11.44
2019-05-25T01:10:46.591Z,11.42
2019-05-25T01:11:46.574Z,11.33
2019-05-25T01:12:46.556Z,11.27
2019-05-25T01:13:46.539Z,11.36
2019-05-25T01:14:46.520Z,11.27
2019-05-25T01:15:46.501Z,11.22
2019-05-25T01:16:46.488Z,11.21
2019-05-25T01:17:46.467Z,11.29
2019-05-25T01:18:46.448Z,11.19
2019-05-25T01:19:46.432Z,11.18
2019-05-25T01:20:46.413Z,11.07
2019-05-25T01:21:46.397Z,11.08
2019-05-25T01:22:46.376Z,11.04
2019-05-25T01:23:46.360Z,11.03
2019-05-25T01:24:46.345Z,11.00
2019-05-25T01:25:46.325Z,10.99
2019-05-25T01:26:46.305Z,10.99
2019-05-25T01:27:46.287Z,11.00
2019-05-25T01:28:46.270Z,10.99
2019-05-25T01:29:46.253Z,11.01
2019-05-25T01:30:46.232Z,10.97
2019-05-25T01:31:46.215Z,11.00
2019-05-25T01:32:46.196Z,10.99
2019-05-25T01:33:46.180Z,10.90
2019-05-25T01:34:46.161Z,10.93
2019-05-25T01:35:46.143Z,10.82
2019-05-25T01:36:46.131Z,10.91
2019-05-25T01:37:48.435Z,10.85
2019-05-25T01:38:46.090Z,10.71
2019-05-25T01:39:46.071Z,10.74
2019-05-25T01:40:46.051Z,10.75
2019-05-25T01:41:46.033Z,10.71
2019-05-25T01:42:46.020Z,10.79
2019-05-25T01:43:45.996Z,10.71
2019-05-25T01:44:45.978Z,10.53
2019-05-25T01:45:45.961Z,10.51
2019-05-25T01:46:45.943Z,10.34
2019-05-25T01:47:45.928Z,10.34
2019-05-25T01:48:45.906Z,10.37
2019-05-25T01:49:45.889Z,10.27
2019-05-25T01:50:45.873Z,10.27
2019-05-25T01:51:45.850Z,10.19
2019-05-25T01:52:45.833Z,10.34
2019-05-25T01:53:45.814Z,10.26
2019-05-25T01:54:58.942Z,10.19
2019-05-25T01:55:45.776Z,10.29
2019-05-25T01:56:45.759Z,10.26
2019-05-25T01:57:45.741Z,10.35
2019-05-25T01:58:45.725Z,10.35
2019-05-25T01:59:45.704Z,10.31
2019-05-25T02:00:45.688Z,10.35
2019-05-25T02:01:45.666Z,10.27
2019-05-25T02:02:45.651Z,10.32
2019-05-25T02:03:45.631Z,10.23
2019-05-25T02:04:45.615Z,10.32
2019-05-25T02:05:45.593Z,10.41
2019-05-25T02:06:45.574Z,10.29
2019-05-25T02:07:45.559Z,10.35
2019-05-25T02:08:45.538Z,10.37
2019-05-25T02:09:45.517Z,10.38
2019-05-25T02:10:45.501Z,10.32
2019-05-25T02:11:45.486Z,10.34
2019-05-25T02:12:45.463Z,10.32
2019-05-25T02:13:45.445Z,10.41
2019-05-25T02:14:45.426Z,10.32
2019-05-25T02:15:45.410Z,10.41
2019-05-25T02:16:45.392Z,10.47
2019-05-25T02:17:45.372Z,10.41
2019-05-25T02:18:45.857Z,10.35
2019-05-25T02:19:45.334Z,10.39
2019-05-25T02:20:45.316Z,10.41
2019-05-25T02:21:45.295Z,10.47
2019-05-25T02:22:45.278Z,10.38
2019-05-25T02:23:45.262Z,10.45
2019-05-25T02:24:45.240Z,10.44
2019-05-25T02:25:45.222Z,10.31
2019-05-25T02:26:45.229Z,10.41
2019-05-25T02:27:45.184Z,10.45
2019-05-25T02:28:45.166Z,10.45
2019-05-25T02:29:45.148Z,10.47
2019-05-25T02:30:45.130Z,10.38
2019-05-25T02:31:45.110Z,10.41
2019-05-25T02:32:45.091Z,10.42
2019-05-25T02:33:45.072Z,10.38
2019-05-25T02:34:45.056Z,10.42
2019-05-25T02:35:45.039Z,10.42
2019-05-25T02:36:45.020Z,10.34
2019-05-25T02:37:45.001Z,10.34
2019-05-25T02:38:44.980Z,10.35
2019-05-25T02:39:44.962Z,10.32
2019-05-25T02:40:44.945Z,10.37
2019-05-25T02:41:44.925Z,10.34
2019-05-25T02:42:44.909Z,10.38
2019-05-25T02:43:44.887Z,10.31
2019-05-25T02:44:44.870Z,10.34
2019-05-25T02:45:44.854Z,10.34
2019-05-25T02:46:44.834Z,10.41
2019-05-25T02:47:44.813Z,10.34
2019-05-25T02:48:44.795Z,10.35
2019-05-25T02:49:44.779Z,10.26
2019-05-25T02:50:44.758Z,10.38
2019-05-25T02:51:44.741Z,10.35
2019-05-25T02:52:44.724Z,10.34
2019-05-25T02:53:44.702Z,10.31
2019-05-25T02:54:44.683Z,10.23
2019-05-25T02:55:44.664Z,10.34
2019-05-25T02:56:44.646Z,10.20
2019-05-25T02:57:44.629Z,10.17
2019-05-25T02:58:44.612Z,10.23
2019-05-25T02:59:44.590Z,10.22
2019-05-25T03:00:44.571Z,10.29
2019-05-25T03:01:44.555Z,10.20
2019-05-25T03:02:44.613Z,10.19
2019-05-25T03:03:44.516Z,10.19
2019-05-25T03:04:44.499Z,10.20
2019-05-25T03:05:44.504Z,10.19
2019-05-25T03:06:44.460Z,10.20
2019-05-25T03:07:44.445Z,10.14
2019-05-25T03:08:44.425Z,10.22
2019-05-25T03:09:44.405Z,10.05
2019-05-25T03:10:44.386Z,10.02
2019-05-25T03:11:44.369Z,10.05
2019-05-25T03:12:44.356Z,10.01
2019-05-25T03:13:44.332Z,9.94
2019-05-25T03:14:44.312Z,9.88
2019-05-25T03:15:44.294Z,9.96
2019-05-25T03:16:44.274Z,9.88
2019-05-25T03:17:44.256Z,9.84
2019-05-25T03:18:44.242Z,9.80
2019-05-25T03:19:44.219Z,9.74
2019-05-25T03:20:44.199Z,9.68
2019-05-25T03:21:44.180Z,9.69
2019-05-25T03:22:44.165Z,9.68
2019-05-25T03:23:44.143Z,9.62
2019-05-25T03:24:44.123Z,9.63
2019-05-25T03:25:49.776Z,9.65
2019-05-25T03:26:44.090Z,9.61
2019-05-25T03:27:44.081Z,9.69
2019-05-25T03:28:44.049Z,9.66
2019-05-25T03:29:44.034Z,9.66
2019-05-25T03:30:44.022Z,9.61
2019-05-25T03:31:43.993Z,9.58
2019-05-25T03:32:43.975Z,9.61
2019-05-25T03:33:43.957Z,9.62
2019-05-25T03:34:43.940Z,9.63
2019-05-25T03:35:43.919Z,9.66
2019-05-25T03:36:43.901Z,9.66
2019-05-25T03:37:43.881Z,9.63
2019-05-25T03:38:43.862Z,9.63
2019-05-25T03:39:43.843Z,9.65
2019-05-25T03:40:43.843Z,9.63
2019-05-25T03:41:43.804Z,9.61
2019-05-25T03:42:43.787Z,9.50
2019-05-25T03:43:43.766Z,9.45
2019-05-25T03:44:43.748Z,9.61
2019-05-25T03:45:43.733Z,9.54
2019-05-25T03:46:43.710Z,9.51
2019-05-25T03:47:43.692Z,9.44
2019-05-25T03:48:43.674Z,9.54
2019-05-25T03:49:43.654Z,9.58
2019-05-25T03:50:43.635Z,9.56
2019-05-25T03:51:43.617Z,9.58
2019-05-25T03:52:43.596Z,9.59
2019-05-25T03:53:43.578Z,9.63
2019-05-25T03:54:43.567Z,9.61
2019-05-25T03:55:43.580Z,9.53
2019-05-25T03:56:43.521Z,9.50
2019-05-25T03:57:43.503Z,9.45
2019-05-25T03:58:43.484Z,9.51
2019-05-25T03:59:43.466Z,9.51
2019-05-25T04:00:43.445Z,9.47
2019-05-25T04:01:43.428Z,9.56
2019-05-25T04:02:43.417Z,9.58
2019-05-25T04:03:43.391Z,9.53
2019-05-25T04:04:43.370Z,9.54
2019-05-25T04:05:43.353Z,9.58
2019-05-25T04:06:43.359Z,9.54
2019-05-25T04:07:43.313Z,9.54
2019-05-25T04:08:43.295Z,9.61
2019-05-25T04:09:43.276Z,9.58
2019-05-25T04:10:43.259Z,9.61
2019-05-25T04:11:43.238Z,9.62
2019-05-25T04:12:43.220Z,9.68
2019-05-25T04:13:43.201Z,9.65
2019-05-25T04:14:43.183Z,9.63
2019-05-25T04:15:43.165Z,9.65
2019-05-25T04:16:43.145Z,9.77
2019-05-25T04:17:43.126Z,9.69
2019-05-25T04:18:43.107Z,9.68
2019-05-25T04:19:43.093Z,9.68
2019-05-25T04:20:43.070Z,9.80
2019-05-25T04:21:43.052Z,9.81
2019-05-25T04:22:43.034Z,9.90
2019-05-25T04:23:43.014Z,9.98
2019-05-25T04:24:42.996Z,9.99
2019-05-25T04:25:42.980Z,9.95
2019-05-25T04:26:42.959Z,10.06
2019-05-25T04:27:42.940Z,10.01
2019-05-25T04:28:42.924Z,10.02
2019-05-25T04:29:42.907Z,10.12
2019-05-25T04:30:42.890Z,10.17
2019-05-25T04:31:42.873Z,10.19
2019-05-25T04:32:42.849Z,10.27
2019-05-25T04:33:42.831Z,10.35
2019-05-25T04:34:42.815Z,10.54
2019-05-25T04:35:42.793Z,11.04
2019-05-25T04:36:42.777Z,11.76
2019-05-25T04:37:42.758Z,12.25
2019-05-25T04:38:42.836Z,12.60
2019-05-25T04:39:42.725Z,13.16
2019-05-25T04:40:42.709Z,13.49
2019-05-25T04:41:42.689Z,13.79
2019-05-25T04:42:42.677Z,14.19
2019-05-25T04:43:42.654Z,14.51
2019-05-25T04:44:42.637Z,14.73
2019-05-25T04:45:42.621Z,14.66
2019-05-25T04:46:42.613Z,14.19
2019-05-25T04:47:42.589Z,14.21
2019-05-25T04:48:42.575Z,14.32
2019-05-25T04:49:42.558Z,14.43
2019-05-25T04:50:42.544Z,14.44
2019-05-25T04:51:42.532Z,14.27
2019-05-25T04:52:42.513Z,14.17
2019-05-25T04:53:42.493Z,13.96
2019-05-25T04:54:42.479Z,13.75
2019-05-25T04:55:42.464Z,13.63
2019-05-25T04:56:42.449Z,13.44
2019-05-25T04:57:42.428Z,13.31
2019-05-25T04:58:42.454Z,13.19
2019-05-25T04:59:42.398Z,13.01
2019-05-25T05:00:42.382Z,12.93
2019-05-25T05:01:42.364Z,12.77
2019-05-25T05:02:42.349Z,12.64
2019-05-25T05:03:42.330Z,12.72
2019-05-25T05:04:42.320Z,12.60
2019-05-25T05:05:42.298Z,12.60
2019-05-25T05:06:42.298Z,12.60
2019-05-25T05:07:42.263Z,12.58
2019-05-25T05:08:42.250Z,12.67
2019-05-25T05:09:42.234Z,12.64
2019-05-25T05:10:42.218Z,12.53
2019-05-25T05:11:42.202Z,12.44
2019-05-25T05:12:42.184Z,12.35
2019-05-25T05:13:42.170Z,12.32
2019-05-25T05:14:42.151Z,12.27
2019-05-25T05:15:42.136Z,12.50
2019-05-25T05:16:42.126Z,12.85
2019-05-25T05:17:42.105Z,13.30
2019-05-25T05:18:42.088Z,13.78
2019-05-25T05:19:42.075Z,14.18
2019-05-25T05:20:42.061Z,14.68
2019-05-25T05:21:42.048Z,15.09
2019-05-25T05:22:42.049Z,15.58
2019-05-25T05:23:42.032Z,15.95
2019-05-25T05:24:42.011Z,16.32
2019-05-25T05:25:42.000Z,16.75
2019-05-25T05:26:54.598Z,17.05
2019-05-25T05:27:41.973Z,17.00
2019-05-25T05:28:41.963Z,16.87
2019-05-25T05:29:41.953Z,16.82
2019-05-25T05:30:41.943Z,16.86
2019-05-25T05:31:41.931Z,17.19
2019-05-25T05:32:41.930Z,17.86
2019-05-25T05:33:41.918Z,18.25
2019-05-25T05:34:41.906Z,18.66
2019-05-25T05:35:41.899Z,18.83
2019-05-25T05:36:41.893Z,18.63
2019-05-25T05:37:41.891Z,18.80
2019-05-25T05:38:41.879Z,18.56
2019-05-25T05:39:41.868Z,18.26
2019-05-25T05:40:41.861Z,18.16
2019-05-25T05:41:41.853Z,18.26
2019-05-25T05:42:41.846Z,18.59
2019-05-25T05:43:41.837Z,18.81
2019-05-25T05:44:41.834Z,19.09
2019-05-25T05:45:41.826Z,19.19
2019-05-25T05:46:41.824Z,19.43
2019-05-25T05:47:41.815Z,19.73
2019-05-25T05:48:41.810Z,20.11
2019-05-25T05:49:41.804Z,20.17
2019-05-25T05:50:41.799Z,20.62
2019-05-25T05:51:41.802Z,20.96
2019-05-25T05:52:41.791Z,21.28
2019-05-25T05:53:41.796Z,21.76
2019-05-25T05:54:41.783Z,22.07
2019-05-25T05:55:41.783Z,22.47
2019-05-25T05:56:41.776Z,22.62
2019-05-25T05:57:41.780Z,22.81
2019-05-25T05:58:41.776Z,22.78
2019-05-25T05:59:41.769Z,22.26
2019-05-25T06:00:41.765Z,21.79
2019-05-25T06:01:41.761Z,21.10
2019-05-25T06:02:41.755Z,20.72
2019-05-25T06:03:41.748Z,20.60
2019-05-25T06:04:41.748Z,20.54
2019-05-25T06:05:41.743Z,20.21
2019-05-25T06:06:41.734Z,19.91
2019-05-25T06:07:41.724Z,19.77
2019-05-25T06:08:41.717Z,19.58
2019-05-25T06:09:41.714Z,19.43
2019-05-25T06:10:41.703Z,19.47
2019-05-25T06:11:41.694Z,19.37
2019-05-25T06:12:41.692Z,19.07
2019-05-25T06:13:41.675Z,18.90
2019-05-25T06:14:41.668Z,18.78
2019-05-25T06:15:41.659Z,18.68
2019-05-25T06:16:41.645Z,18.41
2019-05-25T06:17:41.637Z,18.11
2019-05-25T06:18:41.625Z,17.98
2019-05-25T06:19:41.617Z,17.83
2019-05-25T06:20:41.605Z,17.93
2019-05-25T06:21:41.593Z,18.50
2019-05-25T06:22:41.585Z,18.99
2019-05-25T06:23:41.575Z,19.47
2019-05-25T06:24:41.567Z,19.76
2019-05-25T06:25:41.562Z,19.70
2019-05-25T06:26:41.555Z,19.89
2019-05-25T06:27:41.542Z,19.73
2019-05-25T06:28:41.537Z,19.51
2019-05-25T06:29:41.532Z,19.30
2019-05-25T06:30:41.523Z,19.14
2019-05-25T06:31:41.512Z,19.00
2019-05-25T06:32:41.501Z,18.81
2019-05-25T06:33:41.490Z,18.60
2019-05-25T06:34:41.481Z,18.38
2019-05-25T06:35:41.472Z,18.19
2019-05-25T06:36:41.460Z,17.80
2019-05-25T06:37:41.450Z,17.82
2019-05-25T06:38:41.441Z,17.77
2019-05-25T06:39:41.429Z,17.83
2019-05-25T06:40:41.418Z,17.82
2019-05-25T06:41:41.408Z,17.82
2019-05-25T06:42:41.400Z,17.85
2019-05-25T06:43:41.385Z,17.83
2019-05-25T06:44:41.375Z,17.82
2019-05-25T06:45:41.363Z,17.75
2019-05-25T06:46:41.353Z,18.00
2019-05-25T06:47:41.347Z,18.38
2019-05-25T06:48:41.332Z,18.60
2019-05-25T06:49:41.322Z,18.65
2019-05-25T06:50:41.343Z,18.41
2019-05-25T06:51:41.301Z,18.20
2019-05-25T06:52:41.291Z,18.11
2019-05-25T06:53:41.279Z,17.87
2019-05-25T06:54:41.316Z,17.83
2019-05-25T06:55:41.256Z,17.92
2019-05-25T06:56:41.243Z,18.20
2019-05-25T06:57:43.608Z,18.07
2019-05-25T06:58:41.221Z,18.30
2019-05-25T06:59:41.211Z,18.77
2019-05-25T07:00:41.202Z,19.14
2019-05-25T07:01:41.191Z,19.77
2019-05-25T07:02:41.182Z,20.03
2019-05-25T07:03:41.175Z,20.43
2019-05-25T07:04:41.166Z,20.96
2019-05-25T07:05:41.159Z,21.46
2019-05-25T07:06:41.154Z,21.83
2019-05-25T07:07:41.148Z,22.18
2019-05-25T07:08:41.140Z,22.60
2019-05-25T07:09:41.136Z,22.79
2019-05-25T07:10:41.129Z,22.81
2019-05-25T07:11:41.126Z,22.69
2019-05-25T07:12:41.122Z,22.76
2019-05-25T07:13:41.115Z,22.72
2019-05-25T07:14:41.112Z,22.99
2019-05-25T07:15:41.113Z,23.54
2019-05-25T07:16:41.104Z,23.77
2019-05-25T07:17:41.102Z,24.14
2019-05-25T07:18:41.104Z,24.38
2019-05-25T07:19:41.094Z,24.16
2019-05-25T07:20:41.092Z,23.98
2019-05-25T07:21:41.092Z,24.01
2019-05-25T07:22:41.089Z,24.41
2019-05-25T07:23:41.085Z,24.42
2019-05-25T07:24:41.089Z,24.13
2019-05-25T07:25:41.083Z,24.13
2019-05-25T07:26:41.075Z,24.18
2019-05-25T07:27:41.071Z,24.27
2019-05-25T07:28:41.069Z,24.66
2019-05-25T07:29:41.068Z,24.79
2019-05-25T07:30:41.063Z,24.56
2019-05-25T07:31:41.063Z,24.92
2019-05-25T07:32:41.057Z,24.69
2019-05-25T07:33:41.056Z,24.94
2019-05-25T07:34:41.054Z,24.99
2019-05-25T07:35:41.050Z,25.18
2019-05-25T07:36:41.047Z,25.01
2019-05-25T07:37:41.046Z,25.04
2019-05-25T07:38:41.043Z,24.95
2019-05-25T07:39:41.041Z,24.83
2019-05-25T07:40:41.041Z,24.70
2019-05-25T07:41:41.039Z,24.69
2019-05-25T07:42:41.033Z,24.50
2019-05-25T07:43:41.032Z,24.68
2019-05-25T07:44:41.028Z,24.64
2019-05-25T07:45:41.026Z,24.79
2019-05-25T07:46:41.024Z,24.86
2019-05-25T07:47:41.025Z,24.84
2019-05-25T07:48:41.041Z,24.86
2019-05-25T07:49:41.016Z,24.69
2019-05-25T07:50:41.016Z,24.54
2019-05-25T07:51:41.013Z,24.46
2019-05-25T07:52:41.011Z,24.31
2019-05-25T07:53:41.008Z,24.69
2019-05-25T07:54:41.007Z,24.94
2019-05-25T07:55:41.005Z,25.10
2019-05-25T07:56:41.006Z,25.53
2019-05-25T07:57:41.006Z,25.88
2019-05-25T07:58:41.004Z,25.94
2019-05-25T07:59:40.995Z,26.06
2019-05-25T08:00:40.998Z,25.73
2019-05-25T08:01:40.991Z,25.84
2019-05-25T08:02:40.989Z,26.00
2019-05-25T08:03:40.993Z,26.13
2019-05-25T08:04:40.989Z,26.24
2019-05-25T08:05:40.986Z,26.34
2019-05-25T08:06:40.983Z,26.61
2019-05-25T08:07:40.981Z,26.78
2019-05-25T08:08:40.979Z,26.77
2019-05-25T08:09:40.979Z,27.00
2019-05-25T08:10:40.984Z,27.33
2019-05-25T08:11:40.978Z,27.28
2019-05-25T08:12:40.973Z,26.85
2019-05-25T08:13:40.972Z,26.26
2019-05-25T08:14:40.971Z,26.02
2019-05-25T08:15:40.968Z,26.13
2019-05-25T08:16:40.971Z,26.05
2019-05-25T08:17:40.963Z,25.62
2019-05-25T08:18:40.960Z,25.44
2019-05-25T08:19:40.958Z,25.14
2019-05-25T08:20:40.952Z,24.76
2019-05-25T08:21:40.949Z,24.74
2019-05-25T08:22:40.948Z,24.36
2019-05-25T08:23:40.939Z,23.96
2019-05-25T08:24:40.935Z,23.86
2019-05-25T08:25:40.938Z,23.65
2019-05-25T08:26:40.936Z,23.69
2019-05-25T08:27:40.918Z,23.69
2019-05-25T08:28:40.917Z,23.81
2019-05-25T08:29:40.908Z,24.16
2019-05-25T08:30:40.913Z,24.39
2019-05-25T08:31:40.897Z,24.69
2019-05-25T08:32:40.895Z,24.77
2019-05-25T08:33:40.887Z,24.86
2019-05-25T08:34:40.888Z,24.73
2019-05-25T08:35:40.883Z,24.80
2019-05-25T08:36:40.873Z,24.91
2019-05-25T08:37:40.874Z,24.33
2019-05-25T08:38:40.868Z,24.17
2019-05-25T08:39:40.860Z,22.83
2019-05-25T08:40:40.853Z,22.68
2019-05-25T08:41:40.847Z,22.69
2019-05-25T08:42:40.843Z,22.81
2019-05-25T08:43:40.837Z,22.60
2019-05-25T08:44:40.829Z,22.55
2019-05-25T08:45:40.826Z,22.54
2019-05-25T08:46:40.819Z,22.60
2019-05-25T08:47:40.810Z,22.75
2019-05-25T08:48:40.803Z,22.91
2019-05-25T08:49:40.798Z,22.93
2019-05-25T08:50:40.790Z,23.00
2019-05-25T08:51:40.782Z,23.12
2019-05-25T08:52:40.775Z,22.95
2019-05-25T08:53:42.104Z,22.99
2019-05-25T08:54:40.763Z,22.58
2019-05-25T08:55:40.758Z,22.63
2019-05-25T08:56:40.748Z,22.88
2019-05-25T08:57:40.798Z,22.91
2019-05-25T08:58:48.367Z,23.18
2019-05-25T08:59:40.728Z,23.20
2019-05-25T09:00:40.733Z,23.18
2019-05-25T09:01:40.715Z,23.13
2019-05-25T09:02:40.709Z,22.95
2019-05-25T09:03:40.702Z,23.15
2019-05-25T09:04:40.709Z,23.15
2019-05-25T09:05:40.746Z,23.08
2019-05-25T09:06:40.680Z,22.76
2019-05-25T09:07:40.779Z,22.68
2019-05-25T09:08:40.666Z,22.84
2019-05-25T09:09:40.662Z,22.83
2019-05-25T09:10:40.660Z,22.99
2019-05-25T09:11:40.643Z,22.73
2019-05-25T09:12:40.642Z,22.84
2019-05-25T09:13:40.642Z,22.81
2019-05-25T09:14:40.626Z,22.75
2019-05-25T09:15:40.616Z,22.69
2019-05-25T09:16:40.609Z,22.60
2019-05-25T09:17:40.602Z,22.60
2019-05-25T09:18:40.594Z,22.35
2019-05-25T09:19:40.584Z,22.38
2019-05-25T09:20:40.582Z,22.38
2019-05-25T09:21:40.568Z,22.35
2019-05-25T09:22:40.563Z,22.39
2019-05-25T09:23:40.551Z,22.24
2019-05-25T09:24:40.547Z,22.28
2019-05-25T09:25:40.535Z,22.14
2019-05-25T09:26:40.528Z,21.93
2019-05-25T09:27:40.522Z,21.95
2019-05-25T09:28:40.517Z,21.92
2019-05-25T09:29:40.505Z,22.07
2019-05-25T09:30:40.494Z,22.13
2019-05-25T09:31:40.490Z,21.92
2019-05-25T09:32:40.481Z,22.05
2019-05-25T09:33:40.473Z,22.11
2019-05-25T09:34:40.461Z,22.17
2019-05-25T09:35:40.457Z,22.31
2019-05-25T09:36:40.461Z,22.26
2019-05-25T09:37:40.443Z,22.55
2019-05-25T09:38:43.234Z,22.90
2019-05-25T09:39:40.423Z,23.24
2019-05-25T09:40:40.425Z,23.83
2019-05-25T09:41:40.412Z,24.14
2019-05-25T09:42:40.537Z,24.35
2019-05-25T09:43:40.398Z,24.68
2019-05-25T09:44:40.399Z,24.57
2019-05-25T09:45:40.387Z,24.70
2019-05-25T09:46:40.383Z,24.66
2019-05-25T09:47:40.380Z,24.57
2019-05-25T09:48:40.372Z,24.68
2019-05-25T09:49:40.368Z,25.14
2019-05-25T09:50:40.364Z,25.31
2019-05-25T09:51:40.361Z,25.58
2019-05-25T09:52:40.355Z,25.68
2019-05-25T09:53:40.356Z,25.53
2019-05-25T09:54:40.351Z,25.50
2019-05-25T09:55:40.344Z,25.51
2019-05-25T09:56:40.342Z,25.33
2019-05-25T09:57:41.756Z,25.50
2019-05-25T09:58:40.337Z,25.62
2019-05-25T09:59:40.330Z,25.99
2019-05-25T10:00:40.685Z,26.32
2019-05-25T10:01:40.323Z,26.58
2019-05-25T10:02:40.439Z,26.68
2019-05-25T10:03:40.318Z,26.61
2019-05-25T10:04:40.318Z,26.88
2019-05-25T10:05:40.316Z,27.06
2019-05-25T10:06:40.307Z,27.20
2019-05-25T10:07:40.305Z,27.18
2019-05-25T10:08:40.302Z,27.14
2019-05-25T10:09:40.431Z,26.41
2019-05-25T10:10:40.297Z,26.37
2019-05-25T10:11:40.338Z,26.40
2019-05-25T10:12:40.301Z,26.28
2019-05-25T10:13:40.292Z,25.94
2019-05-25T10:14:40.284Z,25.26
2019-05-25T10:15:40.292Z,25.24
2019-05-25T10:16:40.278Z,25.32
2019-05-25T10:17:40.274Z,25.06
2019-05-25T10:18:40.271Z,25.01
2019-05-25T10:19:40.265Z,25.11
2019-05-25T10:20:40.267Z,25.26
2019-05-25T10:21:40.257Z,25.17
2019-05-25T10:22:40.265Z,25.33
2019-05-25T10:23:40.253Z,25.46
2019-05-25T10:24:40.246Z,25.61
2019-05-25T10:25:40.246Z,25.51
2019-05-25T10:26:40.280Z,25.54
2019-05-25T10:27:40.233Z,25.33
2019-05-25T10:28:40.228Z,25.07
2019-05-25T10:29:40.224Z,25.11
2019-05-25T10:30:40.221Z,24.99
2019-05-25T10:31:40.217Z,25.09
2019-05-25T10:32:40.212Z,24.96
2019-05-25T10:33:40.205Z,24.91
2019-05-25T10:34:40.206Z,24.58
2019-05-25T10:35:40.199Z,24.20
2019-05-25T10:36:40.192Z,23.96
2019-05-25T10:37:40.185Z,23.74
2019-05-25T10:38:40.179Z,24.01
2019-05-25T10:39:40.171Z,24.16
2019-05-25T10:40:40.166Z,24.13
2019-05-25T10:41:40.161Z,24.43
2019-05-25T10:42:40.156Z,24.53
2019-05-25T10:43:40.151Z,24.36
2019-05-25T10:44:40.146Z,24.42
2019-05-25T10:45:40.141Z,24.23
2019-05-25T10:46:40.136Z,24.21
2019-05-25T10:47:40.129Z,24.28
2019-05-25T10:48:40.139Z,24.57
2019-05-25T10:49:40.117Z,24.68
2019-05-25T10:50:40.114Z,24.68
2019-05-25T10:51:40.104Z,24.95
2019-05-25T10:52:40.098Z,24.99
2019-05-25T10:53:40.093Z,25.24
2019-05-25T10:54:40.095Z,25.06
2019-05-25T10:55:40.087Z,25.24
2019-05-25T10:56:40.077Z,25.46
2019-05-25T10:57:40.075Z,25.75
2019-05-25T10:58:40.069Z,26.09
2019-05-25T10:59:52.616Z,26.24
2019-05-25T11:00:40.061Z,26.32
2019-05-25T11:01:40.056Z,26.22
2019-05-25T11:02:40.057Z,26.32
2019-05-25T11:03:40.044Z,26.16
2019-05-25T11:04:40.041Z,26.05
2019-05-25T11:05:40.037Z,25.95
2019-05-25T11:06:40.034Z,26.05
2019-05-25T11:07:40.027Z,25.80
2019-05-25T11:08:40.024Z,25.63
2019-05-25T11:09:40.022Z,25.54
2019-05-25T11:10:40.020Z,25.35
2019-05-25T11:11:40.013Z,25.54
2019-05-25T11:12:40.006Z,25.94
2019-05-25T11:13:39.997Z,26.39
2019-05-25T11:14:39.992Z,26.55
2019-05-25T11:15:39.987Z,26.66
2019-05-25T11:16:39.991Z,26.34
2019-05-25T11:17:39.980Z,26.25
2019-05-25T11:18:39.977Z,26.31
2019-05-25T11:19:39.974Z,25.76
2019-05-25T11:20:39.965Z,25.98
2019-05-25T11:21:39.961Z,26.34
2019-05-25T11:22:39.962Z,26.77
2019-05-25T11:23:39.949Z,26.98
2019-05-25T11:24:39.946Z,27.33
2019-05-25T11:25:39.941Z,27.48
2019-05-25T11:26:39.938Z,27.51
2019-05-25T11:27:39.946Z,27.45
2019-05-25T11:28:39.931Z,27.61
2019-05-25T11:29:39.925Z,27.71
2019-05-25T11:30:39.921Z,28.05
2019-05-25T11:31:39.932Z,28.36
2019-05-25T11:32:39.933Z,28.42
2019-05-25T11:33:39.914Z,28.22
2019-05-25T11:34:39.907Z,28.36
2019-05-25T11:35:39.917Z,28.75
2019-05-25T11:36:39.899Z,28.78
2019-05-25T11:37:39.895Z,28.22
2019-05-25T11:38:39.893Z,28.27
2019-05-25T11:39:39.889Z,28.26
2019-05-25T11:40:39.884Z,28.22
2019-05-25T11:41:39.910Z,28.65
2019-05-25T11:42:39.880Z,28.40
2019-05-25T11:43:39.874Z,28.54
2019-05-25T11:44:39.873Z,28.57
2019-05-25T11:45:39.872Z,28.30
2019-05-25T11:46:39.865Z,28.44
2019-05-25T11:47:39.859Z,29.01
2019-05-25T11:48:39.858Z,28.54
2019-05-25T11:49:39.857Z,28.63
2019-05-25T11:50:39.851Z,29.11
2019-05-25T11:51:39.849Z,28.85
2019-05-25T11:52:40.252Z,28.89
2019-05-25T11:53:39.843Z,29.08
2019-05-25T11:54:39.837Z,29.19
2019-05-25T11:55:39.855Z,29.47
2019-05-25T11:56:39.830Z,29.26
2019-05-25T11:57:39.833Z,29.54
2019-05-25T11:58:47.453Z,29.37
2019-05-25T11:59:39.822Z,28.92
2019-05-25T12:00:39.818Z,29.03
2019-05-25T12:01:39.819Z,28.75
2019-05-25T12:02:39.812Z,28.15
2019-05-25T12:03:39.809Z,28.27
2019-05-25T12:04:39.803Z,28.35
2019-05-25T12:05:39.799Z,28.47
2019-05-25T12:06:39.797Z,28.77
2019-05-25T12:07:43.643Z,29.01
2019-05-25T12:08:39.791Z,28.89
2019-05-25T12:09:39.789Z,29.10
2019-05-25T12:10:39.783Z,28.84
2019-05-25T12:11:39.802Z,29.10
2019-05-25T12:12:39.777Z,29.34
2019-05-25T12:13:39.784Z,29.53
2019-05-25T12:14:39.770Z,29.66
2019-05-25T12:15:39.768Z,29.90
2019-05-25T12:16:39.762Z,30.11
2019-05-25T12:17:39.762Z,30.03
2019-05-25T12:18:39.762Z,29.66
2019-05-25T12:19:39.751Z,29.47
2019-05-25T12:20:39.748Z,29.25
2019-05-25T12:21:39.743Z,28.25
2019-05-25T12:22:39.743Z,28.13
2019-05-25T12:23:39.735Z,27.98
2019-05-25T12:24:39.730Z,27.99
2019-05-25T12:25:39.728Z,27.80
2019-05-25T12:26:39.725Z,28.18
2019-05-25T12:27:39.721Z,28.18
2019-05-25T12:28:39.725Z,27.99
2019-05-25T12:29:39.710Z,28.27
2019-05-25T12:30:41.181Z,28.78
2019-05-25T12:31:39.702Z,28.96
2019-05-25T12:32:39.696Z,29.05
2019-05-25T12:33:39.693Z,28.66
2019-05-25T12:34:39.692Z,28.29
2019-05-25T12:35:39.693Z,27.83
2019-05-25T12:36:39.682Z,27.99
2019-05-25T12:37:39.689Z,28.25
2019-05-25T12:38:39.677Z,27.73
2019-05-25T12:39:39.675Z,27.21
2019-05-25T12:40:52.854Z,27.17
2019-05-25T12:41:39.657Z,27.15
2019-05-25T12:42:39.652Z,26.92
2019-05-25T12:43:39.721Z,27.18
2019-05-25T12:44:39.644Z,27.73
2019-05-25T12:45:42.117Z,27.83
2019-05-25T12:46:39.687Z,27.92
2019-05-25T12:47:39.623Z,27.95
2019-05-25T12:48:39.617Z,28.14
2019-05-25T12:49:50.183Z,28.36
2019-05-25T12:50:39.647Z,28.81
2019-05-25T12:51:39.603Z,29.17
2019-05-25T12:52:39.600Z,29.32
2019-05-25T12:53:39.594Z,29.30
2019-05-25T12:54:39.594Z,28.75
2019-05-25T12:55:39.587Z,28.72